Time;durP1;ratioP1;P1;durP2;ratioP2;P2;SDS_P1;SDS_P2;PMS_P1;PMS_P2;Temp;Humidity;BMP_temperature;BMP_pressure;BME280_temperature;BME280_humidity;BME280_pressure;Samples;Min_cycle;Max_cycle;Signal;HPM_P1;HPM_P2
2023/08/26 00:03:02;;;;;;;8.32;2.47;;;;;;;11.70;49.48;95981.13;6268705;28;20500;-70
2023/08/26 00:06:11;;;;;;;8.07;2.42;;;;;;;11.67;49.58;95987.47;6268709;28;20041;-70
2023/08/26 00:09:18;;;;;;;5.22;2.45;;;;;;;11.63;49.60;95985.22;6268586;28;20049;-70
2023/08/26 00:12:23;;;;;;;10.18;2.55;;;;;;;11.66;49.71;95983.19;6268370;28;20056;-69
2023/08/26 00:15:30;;;;;;;7.28;2.22;;;;;;;11.65;49.71;95991.19;6268415;28;20051;-70
2023/08/26 00:18:35;;;;;;;3.90;2.13;;;;;;;11.65;49.47;95989.41;6268312;28;20053;-70
2023/08/26 00:21:38;;;;;;;5.38;1.98;;;;;;;11.61;49.73;95985.34;6268303;28;20462;-70
2023/08/26 00:24:40;;;;;;;5.25;2.08;;;;;;;11.55;49.82;95991.16;6272177;28;20041;-70
2023/08/26 00:27:44;;;;;;;2.83;1.58;;;;;;;11.56;50.07;95990.16;6272870;28;20056;-69
2023/08/26 00:30:54;;;;;;;;;;;;;;;11.48;49.67;95989.97;6273676;28;20072;-70
2023/08/26 00:33:55;;;;;;;3.03;1.20;;;;;;;11.40;49.97;95985.31;6271643;28;19927;-70
2023/08/26 00:36:56;;;;;;;4.40;1.50;;;;;;;11.44;49.88;95985.94;6272934;28;20074;-70
2023/08/26 00:39:59;;;;;;;2.63;1.45;;;;;;;11.34;49.65;95979.72;6272641;28;20045;-70
2023/08/26 00:43:07;;;;;;;2.78;1.40;;;;;;;11.46;49.88;95984.84;6272064;28;20048;-69
2023/08/26 00:46:09;;;;;;;3.40;1.60;;;;;;;11.46;49.80;95986.63;6271055;28;20183;-69
2023/08/26 00:49:18;;;;;;;3.13;1.33;;;;;;;11.36;50.07;95980.44;6271059;28;20151;-70
2023/08/26 00:52:20;;;;;;;1.73;1.33;;;;;;;11.34;49.97;95985.00;6272155;28;20053;-69
2023/08/26 00:55:26;;;;;;;2.83;1.15;;;;;;;11.34;49.98;95998.16;6271879;28;20056;-69
2023/08/26 00:58:34;;;;;;;4.22;1.30;;;;;;;11.24;50.09;95991.03;6272279;28;20427;-69
2023/08/26 01:01:41;;;;;;;2.65;1.48;;;;;;;11.15;50.32;95983.88;6271806;28;20183;-69
2023/08/26 01:04:50;;;;;;;1.60;1.05;;;;;;;11.16;50.30;95996.06;6272266;28;20557;-69
2023/08/26 01:07:55;;;;;;;2.85;0.90;;;;;;;11.17;50.33;95995.09;6271910;28;20041;-69
2023/08/26 01:11:12;;;;;;;1.27;1.10;;;;;;;11.22;50.26;95998.19;6272102;28;20045;-70
2023/08/26 01:14:34;;;;;;;1.40;1.00;;;;;;;11.26;50.14;95992.69;6271677;28;20051;-69
2023/08/26 01:17:36;;;;;;;3.45;1.30;;;;;;;11.23;50.29;95997.22;6271163;28;20064;-69
2023/08/26 01:20:41;;;;;;;;;;;;;;;11.16;49.69;96003.16;6270958;28;20123;-69
2023/08/26 01:23:44;;;;;;;3.00;1.15;;;;;;;11.09;50.60;96002.78;6269938;28;20003;-69
2023/08/26 01:26:50;;;;;;;3.58;1.20;;;;;;;11.00;50.92;95993.00;6271823;28;20492;-69
2023/08/26 01:29:56;;;;;;;2.88;1.38;;;;;;;10.83;51.07;95990.91;6271489;28;20558;-69
2023/08/26 01:33:15;;;;;;;2.78;1.77;;;;;;;10.86;51.54;95996.75;6271431;28;20040;-69
2023/08/26 01:36:22;;;;;;;2.95;1.58;;;;;;;10.79;51.53;96000.84;6270388;28;20040;-69
2023/08/26 01:39:27;;;;;;;4.95;1.67;;;;;;;10.69;51.86;95997.25;6271401;28;20052;-69
2023/08/26 01:42:35;;;;;;;12.30;2.42;;;;;;;10.67;52.07;96004.41;6271110;28;20041;-69
2023/08/26 01:45:40;;;;;;;7.03;2.17;;;;;;;10.53;52.64;95997.63;6271194;28;20037;-69
2023/08/26 01:48:46;;;;;;;4.70;1.83;;;;;;;10.40;52.93;96004.81;6275493;28;20083;-69
2023/08/26 01:51:49;;;;;;;;;;;;;;;10.33;52.03;96009.69;6296033;28;20075;-69
2023/08/26 01:54:55;;;;;;;11.70;2.38;;;;;;;10.20;53.17;96007.16;6295877;28;20387;-70
2023/08/26 01:58:00;;;;;;;9.40;2.42;;;;;;;10.09;53.56;96009.78;6295535;28;20522;-69
2023/08/26 02:01:09;;;;;;;7.22;2.10;;;;;;;10.00;53.97;96008.69;6295532;28;20131;-69
2023/08/26 02:04:13;;;;;;;4.38;1.95;;;;;;;9.98;54.07;96015.00;6278103;28;20037;-69
2023/08/26 02:07:16;;;;;;;6.95;2.58;;;;;;;9.73;54.30;95987.97;6295232;28;20507;-69
2023/08/26 02:10:21;;;;;;;8.02;2.80;;;;;;;9.86;54.55;96011.53;6294375;28;20507;-69
2023/08/26 02:13:27;;;;;;;12.57;2.88;;;;;;;9.84;54.64;96019.50;6295458;28;20446;-69
2023/08/26 02:16:29;;;;;;;8.60;2.90;;;;;;;9.84;54.73;96024.78;6294648;28;20056;-69
2023/08/26 02:19:32;;;;;;;13.82;2.70;;;;;;;9.81;54.69;96008.41;6277596;28;20048;-69
2023/08/26 02:22:34;;;;;;;7.53;3.53;;;;;;;9.89;55.04;96016.53;6294212;28;20075;-69
2023/08/26 02:25:39;;;;;;;8.00;3.13;;;;;;;9.96;55.06;96022.16;6295052;28;20048;-69
2023/08/26 02:28:41;;;;;;;7.38;3.45;;;;;;;10.04;55.04;96030.31;6295022;28;20044;-69
2023/08/26 02:31:47;;;;;;;12.07;3.63;;;;;;;10.13;54.88;96029.59;6294537;28;20453;-69
2023/08/26 02:34:51;;;;;;;14.95;4.15;;;;;;;10.21;54.81;96027.22;6294223;28;20063;-69
2023/08/26 02:37:56;;;;;;;15.50;4.78;;;;;;;10.28;54.81;96033.72;6293846;28;20057;-69
2023/08/26 02:41:02;;;;;;;14.55;4.07;;;;;;;10.33;54.59;96025.47;6294589;28;20127;-69
2023/08/26 02:44:08;;;;;;;9.40;3.40;;;;;;;10.44;54.69;96027.28;6294782;28;20036;-69
2023/08/26 02:47:10;;;;;;;8.07;3.45;;;;;;;10.44;54.46;96016.75;6294193;28;20407;-69
2023/08/26 02:50:12;;;;;;;9.13;3.58;;;;;;;10.56;54.19;96032.44;6294603;28;20100;-70
2023/08/26 02:53:14;;;;;;;12.43;4.53;;;;;;;10.63;53.74;96022.25;6293330;28;20629;-69
2023/08/26 02:56:20;;;;;;;10.82;3.72;;;;;;;10.79;53.38;96027.97;6276571;28;20040;-69
2023/08/26 02:59:28;;;;;;;13.00;3.75;;;;;;;11.05;52.98;96027.69;6294505;28;20138;-68
2023/08/26 03:02:34;;;;;;;12.18;3.83;;;;;;;11.21;52.05;96022.88;6294174;28;20052;-69
2023/08/26 03:05:41;;;;;;;9.82;4.28;;;;;;;11.45;51.76;96029.72;6276615;28;20089;-69
2023/08/26 03:08:42;;;;;;;;;;;;;;;11.55;51.13;96035.06;6293425;28;20048;-69
2023/08/26 03:11:43;;;;;;;9.65;4.32;;;;;;;11.69;50.91;96027.72;6293939;28;19920;-69
2023/08/26 03:14:47;;;;;;;4.90;3.15;;;;;;;11.94;50.56;96036.25;6293431;28;20040;-70
2023/08/26 03:17:48;;;;;;;;;;;;;;;12.16;49.83;96037.09;6276055;28;20044;-69
2023/08/26 03:20:50;;;;;;;10.95;2.75;;;;;;;12.42;49.56;96040.13;6293937;28;19920;-72
2023/08/26 03:23:55;;;;;;;7.40;2.72;;;;;;;12.76;48.79;96032.78;6293995;28;20040;-69
2023/08/26 03:27:03;;;;;;;6.55;2.25;;;;;;;13.18;47.78;96040.56;6293849;28;20415;-69
2023/08/26 03:30:06;;;;;;;21.25;5.13;;;;;;;13.67;46.88;96044.09;6293711;28;20510;-69
2023/08/26 03:33:10;;;;;;;44.70;13.38;;;;;;;14.11;45.80;96036.56;6293791;28;20040;-70
2023/08/26 03:36:18;;;;;;;42.03;15.15;;;;;;;14.59;44.92;96044.44;6275449;28;20051;-70
2023/08/26 03:39:23;;;;;;;32.80;12.68;;;;;;;14.97;43.99;96049.72;6293232;28;20206;-70
2023/08/26 03:42:26;;;;;;;27.70;9.38;;;;;;;15.25;43.29;96042.59;6293907;28;20420;-70
2023/08/26 03:45:33;;;;;;;20.60;6.68;;;;;;;15.53;42.67;96039.91;6292309;28;20056;-70
2023/08/26 03:48:34;;;;;;;11.75;4.78;;;;;;;15.76;42.27;96042.97;6275285;28;20052;-70
2023/08/26 03:51:40;;;;;;;14.30;4.72;;;;;;;15.82;42.20;96045.84;6292886;28;20091;-70
2023/08/26 03:54:47;;;;;;;13.70;4.10;;;;;;;15.93;42.00;96047.44;6293655;28;20048;-70
2023/08/26 03:57:53;;;;;;;10.13;3.65;;;;;;;16.00;41.72;96042.38;6294332;28;20048;-70
2023/08/26 04:01:06;;;;;;;12.95;3.60;;;;;;;16.11;41.49;96044.78;6298092;28;20049;-70
2023/08/26 04:04:08;;;;;;;7.47;3.75;;;;;;;16.14;41.27;96039.16;6298192;28;20419;-70
2023/08/26 04:07:12;;;;;;;14.13;3.63;;;;;;;16.31;41.40;96050.72;6298220;28;20037;-70
2023/08/26 04:10:15;;;;;;;9.80;3.40;;;;;;;16.44;41.28;96051.13;6298006;28;20036;-69
2023/08/26 04:13:27;;;;;;;6.15;2.35;;;;;;;16.51;41.02;96062.81;6297123;28;20059;-69
2023/08/26 04:16:35;;;;;;;10.20;3.05;;;;;;;16.66;40.88;96048.97;6298128;28;20299;-69
2023/08/26 04:19:39;;;;;;;11.25;3.45;;;;;;;16.69;40.71;96051.28;6297878;28;20135;-70
2023/08/26 04:22:45;;;;;;;10.38;3.65;;;;;;;16.69;40.91;96048.63;6297694;28;20135;-69
2023/08/26 04:25:57;;;;;;;13.50;3.42;;;;;;;16.82;40.49;96049.09;6297103;28;20049;-70
2023/08/26 04:29:03;;;;;;;8.50;3.67;;;;;;;17.12;40.06;96052.19;6297733;28;20491;-69
2023/08/26 04:32:06;;;;;;;12.73;3.95;;;;;;;17.40;39.43;96053.63;6297974;28;20041;-69
2023/08/26 04:35:11;;;;;;;22.38;6.18;;;;;;;17.62;39.02;96052.19;6296569;28;20131;-69
2023/08/26 04:38:15;;;;;;;22.05;6.30;;;;;;;18.02;38.53;96060.41;6296565;28;20505;-69
2023/08/26 04:41:16;;;;;;;25.17;7.75;;;;;;;18.38;37.36;96052.94;6297358;28;20051;-69
2023/08/26 04:44:22;;;;;;;26.33;7.13;;;;;;;18.70;36.56;96054.69;6297097;28;20047;-70
2023/08/26 04:47:31;;;;;;;19.58;6.88;;;;;;;19.21;36.14;96049.91;6297271;28;20036;-69
2023/08/26 04:50:34;;;;;;;14.10;4.72;;;;;;;19.72;35.08;96052.16;6296068;28;20051;-69
2023/08/26 04:53:42;;;;;;;16.08;6.68;;;;;;;20.06;34.10;96059.78;6297423;28;20044;-69
2023/08/26 04:56:48;;;;;;;11.98;3.78;;;;;;;20.09;33.58;96054.06;6296885;28;20041;-70
2023/08/26 04:59:54;;;;;;;5.43;2.30;;;;;;;19.94;33.85;96051.34;6297089;28;20499;-69
2023/08/26 05:02:55;;;;;;;;;;;;;;;20.19;33.74;96045.84;6297293;28;20499;-69
2023/08/26 05:06:01;;;;;;;5.53;1.60;;;;;;;19.83;33.68;96042.94;6296842;28;19926;-69
2023/08/26 05:09:10;;;;;;;5.78;1.70;;;;;;;19.44;33.78;96033.94;6296740;28;20041;-69
2023/08/26 05:12:13;;;;;;;4.05;2.15;;;;;;;19.38;34.46;96031.97;6296586;28;20044;-69
2023/08/26 05:15:19;;;;;;;4.28;1.73;;;;;;;19.65;33.80;96033.38;6295714;28;20047;-69
2023/08/26 05:18:22;;;;;;;3.97;1.90;;;;;;;20.97;32.22;96038.41;6277625;28;20052;-69
2023/08/26 05:21:26;;;;;;;3.70;1.50;;;;;;;25.39;26.61;96053.91;6296502;28;20492;-70
2023/08/26 05:24:27;;;;;;;2.30;1.30;;;;;;;28.23;23.07;96045.47;6295452;28;20048;-70
2023/08/26 05:27:31;;;;;;;2.58;0.90;;;;;;;30.45;20.66;96040.03;6295485;28;20135;-69
2023/08/26 05:30:38;;;;;;;3.17;1.90;;;;;;;32.26;19.17;96057.53;6296372;28;20048;-70
2023/08/26 05:33:41;;;;;;;1.70;0.60;;;;;;;32.18;18.75;96050.63;6295624;28;20044;-71
2023/08/26 05:36:43;;;;;;;4.85;3.70;;;;;;;30.40;19.56;96043.47;6295011;28;20052;-70
2023/08/26 05:39:47;;;;;;;3.15;1.00;;;;;;;29.49;20.54;96041.41;6295783;28;20040;-68
2023/08/26 05:42:53;;;;;;;1.88;1.33;;;;;;;30.59;20.21;96053.03;6278008;28;20415;-70
2023/08/26 05:45:57;;;;;;;3.30;0.95;;;;;;;31.20;19.48;96042.34;6295707;28;20427;-69
2023/08/26 05:49:01;;;;;;;4.63;1.33;;;;;;;31.56;18.83;96053.69;6294070;28;20044;-69
2023/08/26 05:52:02;;;;;;;2.22;0.80;;;;;;;33.07;17.92;96051.19;6294536;28;20516;-69
2023/08/26 05:55:04;;;;;;;8.73;2.67;;;;;;;34.60;16.97;96049.13;6294416;28;20049;-69
2023/08/26 05:58:08;;;;;;;4.70;1.80;;;;;;;35.15;16.34;96060.31;6294196;28;20056;-69
2023/08/26 06:01:15;;;;;;;3.63;2.72;;;;;;;35.38;15.68;96053.41;6278686;28;20526;-69
2023/08/26 06:04:23;;;;;;;4.70;0.90;;;;;;;36.79;15.01;96054.13;6295475;28;20504;-69
2023/08/26 06:07:24;;;;;;;2.30;0.70;;;;;;;38.77;13.26;96050.19;6294580;28;20542;-69
2023/08/26 06:10:26;;;;;;;2.20;0.52;;;;;;;39.53;12.04;96055.50;6294174;28;20435;-69
2023/08/26 06:13:31;;;;;;;4.25;0.75;;;;;;;39.94;12.26;96057.44;6294110;28;20071;-69
2023/08/26 06:16:33;;;;;;;1.52;0.70;;;;;;;36.96;13.44;96053.72;6294205;28;20055;-70
2023/08/26 06:19:36;;;;;;;1.35;0.50;;;;;;;34.68;14.93;96047.75;6277435;28;20049;-69
2023/08/26 06:22:42;;;;;;;1.08;0.60;;;;;;;37.32;13.76;96043.25;6294344;28;20511;-69
2023/08/26 06:25:54;;;;;;;2.17;0.68;;;;;;;41.23;11.07;96056.97;6293608;28;20423;-70
2023/08/26 06:29:00;;;;;;;1.80;0.50;;;;;;;43.22;9.81;96052.19;6294669;28;20044;-69
2023/08/26 06:32:05;;;;;;;2.28;0.70;;;;;;;43.62;9.56;96055.50;6294589;28;20052;-69
2023/08/26 06:35:07;;;;;;;1.70;0.50;;;;;;;42.98;9.29;96047.19;6293439;28;20076;-71
2023/08/26 06:38:10;;;;;;;1.85;0.68;;;;;;;42.20;10.03;96045.16;6275249;28;20048;-69
2023/08/26 06:41:14;;;;;;;2.15;0.93;;;;;;;42.29;9.82;96043.22;6293300;28;20052;-69
2023/08/26 06:44:20;;;;;;;1.33;0.80;;;;;;;39.34;11.13;96030.00;6294122;28;20052;-69
2023/08/26 06:47:22;;;;;;;1.73;0.70;;;;;;;35.62;13.60;96029.03;6293511;28;20053;-69
2023/08/26 06:50:23;;;;;;;0.90;0.60;;;;;;;34.28;14.30;96016.53;6293017;28;20048;-69
2023/08/26 07:06:04;;;;;;;5.70;0.90;;;;;;;37.55;12.68;96024.38;6170383;27;4232289;-71
2023/08/26 07:09:10;;;;;;;5.90;1.02;;;;;;;38.46;11.95;96027.03;6290194;28;20032;-71
2023/08/26 07:12:16;;;;;;;3.47;1.15;;;;;;;38.43;11.99;96027.66;6289915;28;20538;-69
2023/08/26 07:15:20;;;;;;;3.05;1.00;;;;;;;37.83;12.03;96023.47;6289944;28;20037;-69
2023/08/26 07:18:21;;;;;;;11.55;4.88;;;;;;;37.58;12.63;96023.78;6290132;28;20048;-69
2023/08/26 07:21:28;;;;;;;3.17;2.15;;;;;;;37.19;12.63;96030.22;6289775;28;20048;-69
2023/08/26 07:24:32;;;;;;;2.33;0.88;;;;;;;34.30;14.46;96030.75;6288990;28;20088;-71
2023/08/26 07:27:38;;;;;;;1.88;0.80;;;;;;;32.35;15.99;96011.59;6289560;28;20048;-71
2023/08/26 07:30:44;;;;;;;2.28;1.02;;;;;;;31.91;16.67;96011.72;6289736;28;20044;-71
2023/08/26 07:33:50;;;;;;;1.77;0.90;;;;;;;31.88;16.61;96006.78;6272121;28;20499;-72
2023/08/26 07:36:58;;;;;;;2.55;1.00;;;;;;;32.09;16.39;96013.25;6289451;28;20147;-69
2023/08/26 07:40:08;;;;;;;1.48;0.70;;;;;;;34.53;14.53;96012.19;6272790;28;20044;-69
2023/08/26 07:43:09;;;;;;;1.25;0.50;;;;;;;38.58;11.45;96025.44;6289598;28;20051;-70
2023/08/26 07:46:15;;;;;;;1.75;0.70;;;;;;;42.47;9.61;96033.03;6289415;28;20036;-70
2023/08/26 07:49:23;;;;;;;2.35;0.70;;;;;;;42.43;9.18;96026.50;6289276;28;20033;-71
2023/08/26 07:52:29;;;;;;;1.40;0.82;;;;;;;40.81;10.15;96016.91;6289259;28;20045;-70
2023/08/26 07:55:37;;;;;;;3.03;1.02;;;;;;;41.41;9.80;96019.22;6288851;28;20048;-70
2023/08/26 07:58:41;;;;;;;4.47;2.88;;;;;;;40.10;10.70;96017.41;6288908;28;20036;-70
2023/08/26 08:01:45;;;;;;;3.65;1.35;;;;;;;37.34;12.63;96007.28;6288886;28;20037;-69
2023/08/26 08:04:51;;;;;;;1.67;0.85;;;;;;;34.96;14.14;96005.38;6266999;28;20573;-71
2023/08/26 08:07:56;;;;;;;2.90;1.23;;;;;;;33.24;15.44;95996.50;6272586;28;20080;-70
2023/08/26 08:10:59;;;;;;;3.88;1.13;;;;;;;32.16;15.81;95995.66;6272284;28;20041;-69
2023/08/26 08:14:00;;;;;;;4.10;0.90;;;;;;;31.33;16.74;95993.03;6271988;28;20060;-72
2023/08/26 08:17:09;;;;;;;1.55;0.90;;;;;;;29.73;17.63;95987.19;6272198;28;20427;-71
2023/08/26 08:20:15;;;;;;;7.97;1.30;;;;;;;28.32;19.12;95992.66;6272178;28;20045;-70
2023/08/26 08:23:21;;;;;;;3.80;1.45;;;;;;;27.64;19.83;95996.53;6270950;28;20049;-69
2023/08/26 08:26:25;;;;;;;2.13;0.90;;;;;;;26.83;20.48;95983.09;6272106;28;20544;-71
2023/08/26 08:29:28;;;;;;;4.32;1.20;;;;;;;26.62;20.97;95988.94;6272168;28;20045;-71
2023/08/26 08:32:37;;;;;;;1.35;1.00;;;;;;;27.01;20.00;95992.28;6271957;28;20041;-71
2023/08/26 08:35:43;;;;;;;3.15;1.33;;;;;;;27.20;20.07;95990.44;6271917;28;20415;-71
2023/08/26 08:38:51;;;;;;;1.48;1.00;;;;;;;27.03;20.24;95984.78;6271692;28;20064;-70
2023/08/26 08:42:01;;;;;;;2.05;1.00;;;;;;;26.85;20.79;95983.72;6271521;28;20045;-72
2023/08/26 08:45:08;;;;;;;3.28;1.15;;;;;;;26.79;20.73;95984.63;6271419;28;20131;-71
2023/08/26 08:48:15;;;;;;;2.13;1.10;;;;;;;26.82;21.03;95984.16;6271695;28;20044;-70
2023/08/26 08:51:24;;;;;;;2.67;1.23;;;;;;;26.90;20.68;95990.34;6270364;28;20485;-71
2023/08/26 08:54:32;;;;;;;1.40;0.88;;;;;;;27.47;19.83;95985.53;6253626;28;20049;-70
2023/08/26 08:57:36;;;;;;;1.73;0.80;;;;;;;28.15;19.43;95976.28;6271025;28;20491;-69
2023/08/26 09:00:44;;;;;;;0.88;0.70;;;;;;;28.75;18.67;95983.44;6271266;28;20423;-70
2023/08/26 09:03:47;;;;;;;2.55;0.90;;;;;;;29.38;17.84;95985.34;6273620;28;20233;-69
2023/08/26 09:06:51;;;;;;;1.27;0.68;;;;;;;29.76;17.89;95975.84;6296171;28;20043;-70
2023/08/26 09:09:57;;;;;;;1.27;0.60;;;;;;;30.83;17.22;95974.97;6296030;28;20056;-71
2023/08/26 09:13:04;;;;;;;3.65;1.20;;;;;;;32.81;15.59;95973.84;6295764;28;20135;-69
2023/08/26 09:16:07;;;;;;;1.63;0.77;;;;;;;34.92;14.00;95943.31;6294255;28;20052;-69
2023/08/26 09:19:13;;;;;;;1.55;0.65;;;;;;;38.84;11.29;95987.38;6294132;28;20121;-69
2023/08/26 09:22:20;;;;;;;1.60;0.80;;;;;;;42.10;9.58;96001.28;6294840;28;20040;-69
2023/08/26 09:25:24;;;;;;;2.10;1.35;;;;;;;42.77;9.55;95992.50;6295426;28;20052;-70
2023/08/26 09:28:28;;;;;;;8.13;4.97;;;;;;;39.71;10.95;95980.22;6295522;28;20044;-70
2023/08/26 09:31:44;;;;;;;5.10;2.63;;;;;;;40.81;10.38;95979.09;6295165;28;20048;-70
2023/08/26 09:34:48;;;;;;;2.05;1.13;;;;;;;41.40;10.00;95987.22;6295140;28;20044;-70
2023/08/26 09:38:04;;;;;;;5.57;2.17;;;;;;;38.59;11.56;95985.06;6294506;28;20539;-70
2023/08/26 09:41:19;;;;;;;2.25;1.05;;;;;;;34.72;13.48;95980.53;6295430;28;20345;-70
2023/08/26 09:44:23;;;;;;;2.00;1.05;;;;;;;31.70;15.67;95962.50;6294648;28;20045;-70
2023/08/26 09:47:36;;;;;;;2.13;1.00;;;;;;;29.61;17.55;95959.25;6294995;28;20082;-70
2023/08/26 09:50:37;;;;;;;2.42;1.00;;;;;;;27.66;18.98;95962.84;6294157;28;20139;-69
2023/08/26 09:53:42;;;;;;;3.50;1.00;;;;;;;26.19;20.49;95952.75;6294662;28;20047;-70
2023/08/26 09:56:49;;;;;;;2.05;0.77;;;;;;;25.14;22.27;95964.91;6294745;28;20048;-69
2023/08/26 09:59:58;;;;;;;3.80;0.85;;;;;;;24.23;23.00;95963.00;6288271;28;20473;-71
2023/08/26 10:03:06;;;;;;;3.72;1.48;;;;;;;23.45;23.54;95952.75;6294684;28;20462;-70
2023/08/26 10:06:13;;;;;;;3.20;1.65;;;;;;;22.87;24.27;95958.47;6293072;28;20045;-70
2023/08/26 10:09:31;;;;;;;5.07;2.10;;;;;;;22.23;25.44;95958.72;6294653;28;20495;-69
2023/08/26 10:12:42;;;;;;;13.63;7.85;;;;;;;21.79;25.79;95957.88;6294293;28;20044;-71
2023/08/26 10:15:44;;;;;;;7.20;3.47;;;;;;;21.52;26.19;95954.94;6294218;28;20048;-71
2023/08/26 10:18:54;;;;;;;6.97;2.55;;;;;;;21.10;28.99;95970.91;6293356;28;20057;-71
2023/08/26 10:22:01;;;;;;;7.80;3.47;;;;;;;20.09;32.07;95973.13;6293970;28;20044;-70
2023/08/26 10:25:05;;;;;;;7.30;4.03;;;;;;;18.87;37.57;95980.06;6293291;28;20063;-70
2023/08/26 10:28:11;;;;;;;5.22;2.53;;;;;;;17.68;40.31;96000.97;6292909;28;20048;-70
2023/08/26 10:31:16;;;;;;;2.78;1.42;;;;;;;16.87;43.54;96009.59;6276632;28;20036;-70
2023/08/26 10:34:21;;;;;;;3.40;1.70;;;;;;;16.41;45.81;96008.13;6292669;28;20061;-70
2023/08/26 10:37:43;;;;;;;3.67;2.00;;;;;;;16.41;46.63;96014.28;6293743;28;20045;-70
2023/08/26 10:40:49;;;;;;;6.47;4.60;;;;;;;16.33;46.12;95998.28;6293889;28;20043;-70
2023/08/26 10:43:58;;;;;;;2.85;1.85;;;;;;;16.56;47.76;96017.19;6293669;28;20588;-71
2023/08/26 10:46:59;;;;;;;1.52;1.00;;;;;;;16.87;45.07;96014.91;6293856;28;20048;-71
2023/08/26 10:50:13;;;;;;;1.70;1.38;;;;;;;16.84;47.58;96007.22;6293522;28;20044;-69
2023/08/26 10:53:21;;;;;;;3.00;1.52;;;;;;;16.77;47.66;95987.63;6293567;28;20507;-69
2023/08/26 10:56:28;;;;;;;1.92;1.10;;;;;;;17.30;46.10;95988.31;6293720;28;20040;-69
2023/08/26 10:59:40;;;;;;;2.05;0.90;;;;;;;18.04;45.31;95971.41;6293659;28;20438;-69
2023/08/26 11:02:44;;;;;;;3.63;1.02;;;;;;;18.70;41.36;95980.09;6292885;28;20056;-69
2023/08/26 11:06:05;;;;;;;1.25;0.90;;;;;;;19.36;38.94;95977.16;6297361;28;20060;-69
2023/08/26 11:09:10;;;;;;;0.88;0.70;;;;;;;19.78;37.32;95970.56;6293646;28;20047;-69
2023/08/26 11:12:29;;;;;;;1.00;0.63;;;;;;;20.25;35.77;95982.84;6293716;28;20040;-69
2023/08/26 11:15:34;;;;;;;2.08;1.00;;;;;;;20.44;34.21;95971.66;6288473;28;20495;-69
2023/08/26 11:18:38;;;;;;;23.75;13.02;;;;;;;20.59;33.27;95983.19;6293384;28;20388;-69
2023/08/26 11:21:40;;;;;;;16.30;9.70;;;;;;;20.74;33.06;95980.50;6293381;28;20033;-70
2023/08/26 11:24:47;;;;;;;3.55;2.75;;;;;;;20.94;32.44;95978.09;6292237;28;20051;-70
2023/08/26 11:27:54;;;;;;;2.25;1.50;;;;;;;21.14;32.04;95988.22;6293402;28;20407;-70
2023/08/26 11:31:02;;;;;;;1.90;1.20;;;;;;;21.26;32.78;95986.75;6293406;28;20044;-70
2023/08/26 11:34:07;;;;;;;2.42;1.40;;;;;;;21.42;32.34;95980.34;6293067;28;20125;-69
2023/08/26 11:37:17;;;;;;;2.17;1.38;;;;;;;21.50;31.65;95978.41;6293312;28;20502;-69
2023/08/26 11:40:19;;;;;;;1.30;0.80;;;;;;;21.56;31.24;95981.34;6293603;28;20100;-70
2023/08/26 11:43:23;;;;;;;1.98;1.30;;;;;;;21.51;32.02;95979.22;6297868;28;20028;-70
2023/08/26 11:46:33;;;;;;;2.72;1.48;;;;;;;21.59;32.35;95975.59;6297959;28;20036;-70
2023/08/26 11:49:43;;;;;;;1.85;1.17;;;;;;;21.48;31.79;95972.41;6298141;28;20040;-70
2023/08/26 11:52:53;;;;;;;2.90;1.40;;;;;;;21.25;32.72;95980.53;6297850;28;20491;-70
2023/08/26 11:55:57;;;;;;;4.22;2.55;;;;;;;21.10;33.55;95981.59;6296813;28;20052;-69
2023/08/26 11:59:01;;;;;;;4.88;2.75;;;;;;;20.69;33.59;95947.31;6297481;28;20044;-70
2023/08/26 12:02:24;;;;;;;3.63;2.83;;;;;;;20.62;34.20;95977.47;6297309;28;20037;-69
2023/08/26 12:05:40;;;;;;;3.75;2.20;;;;;;;20.30;35.11;95964.44;6297413;28;20060;-69
2023/08/26 12:08:52;;;;;;;3.20;1.88;;;;;;;20.41;34.60;95977.34;6297244;28;20049;-69
2023/08/26 12:12:03;;;;;;;3.38;1.85;;;;;;;20.24;34.35;95959.81;6297288;28;20051;-69
2023/08/26 12:15:17;;;;;;;1.98;1.35;;;;;;;20.24;34.18;95973.16;6296427;28;20048;-69
2023/08/26 12:18:19;;;;;;;1.73;1.40;;;;;;;20.22;34.24;95969.88;6296909;28;20047;-69
2023/08/26 12:21:23;;;;;;;1.85;1.10;;;;;;;20.52;33.12;95968.03;6297143;28;20411;-70
2023/08/26 12:24:30;;;;;;;3.72;1.65;;;;;;;20.58;32.55;95973.53;6297119;28;20528;-70
2023/08/26 12:27:40;;;;;;;1.83;1.23;;;;;;;20.76;32.73;95975.00;6296841;28;20041;-70
2023/08/26 12:30:45;;;;;;;2.08;1.13;;;;;;;20.83;32.18;95970.56;6293802;28;20053;-70
2023/08/26 12:33:49;;;;;;;1.02;0.85;;;;;;;21.10;31.72;95973.59;6271724;28;20127;-70
2023/08/26 12:36:55;;;;;;;1.40;1.08;;;;;;;21.52;30.57;95954.13;6271907;28;20492;-70
2023/08/26 12:40:03;;;;;;;1.77;0.90;;;;;;;22.38;29.83;95970.16;6271599;28;20044;-70
2023/08/26 12:43:08;;;;;;;1.88;0.70;;;;;;;23.29;28.05;95965.50;6271487;28;20131;-70
2023/08/26 12:46:09;;;;;;;1.77;0.57;;;;;;;23.98;27.10;95964.47;6271305;28;20115;-70
2023/08/26 12:49:15;;;;;;;2.20;0.80;;;;;;;23.91;26.96;95965.47;6271347;28;20052;-70
2023/08/26 12:52:19;;;;;;;2.08;0.95;;;;;;;23.14;27.08;95948.72;6271113;28;20144;-70
2023/08/26 12:55:29;;;;;;;3.53;1.10;;;;;;;22.32;29.11;95966.41;6270766;28;20507;-70
2023/08/26 12:58:37;;;;;;;1.85;1.00;;;;;;;21.58;29.86;95968.59;6271478;28;20076;-70
2023/08/26 13:01:41;;;;;;;1.73;0.98;;;;;;;21.10;30.70;95966.38;6271448;28;20041;-70
2023/08/26 13:04:42;;;;;;;1.40;1.00;;;;;;;20.77;31.28;95971.28;6270381;28;20056;-70
2023/08/26 13:07:46;;;;;;;2.78;0.95;;;;;;;20.53;31.71;95959.06;6271228;28;20539;-70
2023/08/26 13:10:51;;;;;;;2.53;1.02;;;;;;;20.20;32.58;95959.34;6270139;28;20132;-70
2023/08/26 13:13:54;;;;;;;2.03;0.90;;;;;;;19.90;32.63;95959.28;6253398;28;20504;-69
2023/08/26 13:16:58;;;;;;;8.70;4.95;;;;;;;19.56;33.60;95967.69;6271016;28;20415;-69
2023/08/26 13:20:02;;;;;;;8.35;4.38;;;;;;;19.38;33.88;95969.81;6270450;28;20048;-69
2023/08/26 13:23:09;;;;;;;4.15;2.60;;;;;;;19.14;34.11;95965.47;6269519;28;20067;-69
2023/08/26 13:26:12;;;;;;;3.58;2.08;;;;;;;19.05;33.98;95968.16;6270642;28;20045;-69
2023/08/26 13:29:14;;;;;;;4.00;2.30;;;;;;;18.94;34.41;95970.34;6270574;28;20045;-69
2023/08/26 13:32:20;;;;;;;2.85;2.30;;;;;;;18.80;35.12;95972.75;6270490;28;20037;-69
2023/08/26 13:35:22;;;;;;;3.60;1.83;;;;;;;18.60;35.14;95971.47;6252103;28;20060;-69
2023/08/26 13:38:28;;;;;;;5.38;2.22;;;;;;;18.47;35.27;95981.81;6270242;28;20371;-69
2023/08/26 13:41:36;;;;;;;8.60;2.83;;;;;;;18.34;35.98;95972.53;6270031;28;20423;-70
2023/08/26 13:44:38;;;;;;;4.85;3.25;;;;;;;18.34;36.03;95977.00;6269299;28;20190;-69
2023/08/26 13:47:39;;;;;;;6.57;3.97;;;;;;;18.26;36.24;95985.88;6269697;28;20045;-69
2023/08/26 13:50:43;;;;;;;8.80;4.70;;;;;;;18.06;36.30;95979.22;6270240;28;20427;-69
2023/08/26 13:53:50;;;;;;;8.38;4.85;;;;;;;18.00;36.43;95985.22;6270192;28;20211;-69
2023/08/26 13:56:56;;;;;;;8.27;5.38;;;;;;;17.85;36.79;95980.56;6269468;28;20186;-71
2023/08/26 14:00:00;;;;;;;11.20;6.60;;;;;;;17.72;36.94;95978.38;6269029;28;20055;-69
2023/08/26 14:03:07;;;;;;;13.13;6.10;;;;;;;17.56;37.36;95977.53;6269133;28;20040;-68
2023/08/26 14:06:11;;;;;;;9.65;5.05;;;;;;;17.46;37.54;95972.34;6269337;28;20471;-70
2023/08/26 14:09:12;;;;;;;6.57;4.00;;;;;;;17.35;37.88;95981.47;6268789;28;20138;-69
2023/08/26 14:12:16;;;;;;;8.88;3.20;;;;;;;17.29;38.35;95976.81;6269236;28;20099;-70
2023/08/26 14:15:20;;;;;;;7.28;3.22;;;;;;;17.18;38.70;95977.13;6268845;28;20052;-70
2023/08/26 14:18:26;;;;;;;5.50;2.50;;;;;;;17.13;38.77;95984.75;6269117;28;20060;-71
2023/08/26 14:21:30;;;;;;;2.65;1.98;;;;;;;17.03;38.79;95974.25;6268526;28;20045;-70
2023/08/26 14:24:31;;;;;;;4.47;2.10;;;;;;;16.84;38.85;95951.44;6269065;28;20519;-70
2023/08/26 14:27:33;;;;;;;4.00;2.22;;;;;;;16.89;38.93;95978.34;6268782;28;20045;-69
2023/08/26 14:30:39;;;;;;;4.30;2.65;;;;;;;16.86;39.67;95988.47;6269425;28;20083;-69
2023/08/26 14:33:44;;;;;;;5.57;3.28;;;;;;;16.69;39.90;95995.50;6269282;28;20048;-70
2023/08/26 14:36:48;;;;;;;5.18;3.38;;;;;;;16.52;40.25;95990.13;6268559;28;20311;-70
2023/08/26 14:39:49;;;;;;;10.43;5.57;;;;;;;16.41;40.41;95987.72;6268816;28;20048;-70
2023/08/26 14:42:56;;;;;;;16.25;9.23;;;;;;;16.27;40.94;95998.91;6269012;28;20429;-70
2023/08/26 14:46:03;;;;;;;28.85;14.50;;;;;;;16.19;41.00;95990.91;6269255;28;20041;-68
2023/08/26 14:49:12;;;;;;;33.15;19.58;;;;;;;16.00;41.44;95990.13;6268856;28;20040;-69